createdAt,value
2022-08-23T00:02:23.122Z,1.73
2022-08-23T00:05:03.428Z,1.80
2022-08-23T00:07:41.360Z,2.20
2022-08-23T00:10:13.657Z,2.10
2022-08-23T00:12:40.587Z,2.20
2022-08-23T00:15:09.797Z,1.90
2022-08-23T00:17:36.890Z,2.10
2022-08-23T00:20:08.331Z,2.50
2022-08-23T00:22:36.382Z,2.00
2022-08-23T00:25:04.702Z,2.20
2022-08-23T00:27:31.510Z,2.20
2022-08-23T00:29:58.406Z,2.27
2022-08-23T00:32:28.960Z,2.30
2022-08-23T00:34:56.672Z,2.50
2022-08-23T00:37:24.768Z,2.33
2022-08-23T00:39:52.222Z,2.30
2022-08-23T00:43:12.529Z,2.10
2022-08-23T00:46:07.627Z,2.07
2022-08-23T00:48:35.756Z,2.33
2022-08-23T00:51:16.180Z,2.10
2022-08-23T00:53:47.823Z,2.30
2022-08-23T00:56:19.921Z,2.00
2022-08-23T00:58:46.960Z,2.27
2022-08-23T01:01:14.498Z,2.40
2022-08-23T01:03:49.752Z,2.37
2022-08-23T01:06:32.533Z,2.10
2022-08-23T01:09:05.232Z,2.30
2022-08-23T01:11:43.566Z,2.30
2022-08-23T01:14:22.048Z,2.30
2022-08-23T01:16:57.528Z,2.30
2022-08-23T01:19:31.789Z,2.30
2022-08-23T01:22:24.223Z,2.37
2022-08-23T01:25:07.227Z,2.30
2022-08-23T01:27:36.018Z,2.53
2022-08-23T01:30:05.326Z,2.43
2022-08-23T01:32:36.162Z,2.07
2022-08-23T01:35:03.547Z,2.80
2022-08-23T01:37:30.148Z,2.33
2022-08-23T01:39:56.754Z,2.60
2022-08-23T01:42:23.449Z,2.40
2022-08-23T01:44:50.161Z,2.40
2022-08-23T01:47:17.397Z,2.20
2022-08-23T01:49:43.957Z,2.10
2022-08-23T01:52:10.511Z,2.50
2022-08-23T01:54:37.048Z,2.70
2022-08-23T01:57:06.288Z,2.63
2022-08-23T01:59:33.960Z,2.60
2022-08-23T02:02:00.571Z,2.47
2022-08-23T02:04:27.824Z,2.50
2022-08-23T02:06:54.361Z,2.43
2022-08-23T02:09:21.533Z,2.73
2022-08-23T02:11:49.108Z,2.70
2022-08-23T02:14:20.555Z,2.63
2022-08-23T02:17:04.046Z,2.53
2022-08-23T02:19:33.389Z,2.30
2022-08-23T02:22:00.482Z,2.70
2022-08-23T02:24:27.249Z,2.50
2022-08-23T02:26:57.196Z,2.43
2022-08-23T02:29:25.807Z,2.30
2022-08-23T02:31:53.234Z,2.50
2022-08-23T02:37:04.697Z,3.00
2022-08-23T02:39:31.652Z,2.40
2022-08-23T02:41:58.216Z,2.67
2022-08-23T02:44:24.868Z,2.73
2022-08-23T02:46:51.509Z,2.90
2022-08-23T02:49:19.167Z,2.73
2022-08-23T02:51:46.318Z,2.57
2022-08-23T02:54:13.258Z,2.47
2022-08-23T02:56:40.282Z,2.83
2022-08-23T02:59:07.598Z,2.67
2022-08-23T03:01:37.164Z,2.90
2022-08-23T03:04:06.306Z,2.80
2022-08-23T03:06:33.038Z,2.40
2022-08-23T03:08:59.993Z,2.80
2022-08-23T03:11:26.687Z,2.77
2022-08-23T03:13:54.673Z,2.83
2022-08-23T03:16:21.457Z,2.90
2022-08-23T03:18:49.093Z,2.90
2022-08-23T03:21:16.695Z,2.70
2022-08-23T03:23:43.424Z,2.90
2022-08-23T03:26:11.923Z,2.70
2022-08-23T03:28:40.729Z,2.60
2022-08-23T03:31:08.903Z,2.87
2022-08-23T03:33:35.927Z,2.67
2022-08-23T03:36:06.621Z,2.70
2022-08-23T03:38:34.385Z,3.07
2022-08-23T03:41:01.608Z,3.20
2022-08-23T03:43:28.626Z,2.43
2022-08-23T03:45:55.391Z,2.83
2022-08-23T03:48:22.631Z,2.77
2022-08-23T03:50:49.383Z,3.00
2022-08-23T03:53:16.474Z,2.87
2022-08-23T03:55:43.739Z,2.87
2022-08-23T03:58:11.497Z,2.70
2022-08-23T04:00:39.167Z,3.40
2022-08-23T04:03:06.276Z,3.17
2022-08-23T04:05:33.116Z,2.80
2022-08-23T04:08:01.567Z,2.73
2022-08-23T04:10:28.402Z,3.00
2022-08-23T04:12:55.094Z,3.13
2022-08-23T04:15:22.757Z,2.90
2022-08-23T04:17:49.323Z,3.00
2022-08-23T04:20:16.223Z,3.40
2022-08-23T04:22:42.871Z,3.10
2022-08-23T04:25:34.419Z,3.10
2022-08-23T04:27:59.807Z,3.37
2022-08-23T04:30:27.108Z,3.27
2022-08-23T04:32:53.647Z,3.20
2022-08-23T04:35:21.186Z,2.93
2022-08-23T04:37:47.748Z,3.30
2022-08-23T04:40:32.984Z,2.80
2022-08-23T04:42:59.567Z,3.00
2022-08-23T04:45:27.236Z,3.27
2022-08-23T04:47:54.412Z,3.17
2022-08-23T04:50:21.874Z,3.10
2022-08-23T04:52:48.466Z,3.73
2022-08-23T04:55:15.691Z,3.40
2022-08-23T04:57:42.833Z,3.33
2022-08-23T05:00:12.823Z,3.17
2022-08-23T05:02:39.804Z,3.07
2022-08-23T05:05:08.051Z,3.23
2022-08-23T05:07:42.523Z,3.07
2022-08-23T05:10:12.815Z,3.27
2022-08-23T05:12:40.176Z,3.30
2022-08-23T05:15:07.729Z,3.23
2022-08-23T05:17:34.264Z,3.50
2022-08-23T05:20:01.090Z,3.10
2022-08-23T05:22:27.663Z,3.23
2022-08-23T05:24:54.189Z,3.17
2022-08-23T05:27:20.724Z,3.40
2022-08-23T05:29:47.304Z,3.47
2022-08-23T05:32:13.834Z,3.57
2022-08-23T05:34:42.148Z,3.00
2022-08-23T05:37:08.688Z,3.20
2022-08-23T05:39:37.139Z,3.00
2022-08-23T05:42:05.490Z,3.70
2022-08-23T05:44:36.453Z,3.20
2022-08-23T05:47:05.135Z,3.43
2022-08-23T05:49:38.188Z,3.37
2022-08-23T05:52:06.351Z,3.20
2022-08-23T05:54:33.291Z,3.00
2022-08-23T05:56:59.986Z,3.60
2022-08-23T05:59:26.506Z,3.40
2022-08-23T06:01:53.159Z,3.33
2022-08-23T06:04:20.072Z,3.03
2022-08-23T06:06:48.331Z,3.57
2022-08-23T06:09:17.232Z,3.00
2022-08-23T06:11:45.815Z,3.60
2022-08-23T06:14:13.062Z,3.50
2022-08-23T06:16:43.818Z,3.40
2022-08-23T06:19:10.834Z,3.40
2022-08-23T06:21:38.628Z,3.50
2022-08-23T06:24:05.484Z,3.43
2022-08-23T06:26:34.724Z,3.60
2022-08-23T06:29:04.835Z,3.43
2022-08-23T06:31:47.483Z,3.33
2022-08-23T06:34:20.034Z,3.20
2022-08-23T06:36:53.691Z,3.27
2022-08-23T06:39:22.781Z,3.17
2022-08-23T06:41:50.291Z,3.20
2022-08-23T06:44:18.576Z,3.30
2022-08-23T06:46:46.727Z,3.07
2022-08-23T06:49:13.804Z,3.43
2022-08-23T06:51:43.646Z,3.57
2022-08-23T06:54:13.377Z,3.40
2022-08-23T06:56:41.286Z,3.30
2022-08-23T06:59:08.827Z,3.17
2022-08-23T07:01:52.592Z,3.57
2022-08-23T07:04:32.794Z,3.17
2022-08-23T07:07:01.592Z,3.33
2022-08-23T07:09:29.165Z,3.03
2022-08-23T07:11:56.218Z,3.43
2022-08-23T07:14:23.627Z,3.00
2022-08-23T07:16:53.237Z,3.10
2022-08-23T07:19:22.390Z,3.10
2022-08-23T07:21:56.637Z,3.13
2022-08-23T07:24:23.425Z,3.20
2022-08-23T07:26:52.198Z,3.00
2022-08-23T07:29:21.056Z,3.17
2022-08-23T07:31:56.423Z,3.17
2022-08-23T07:34:24.901Z,2.70
2022-08-23T07:36:52.928Z,2.80
2022-08-23T07:39:20.813Z,2.80
2022-08-23T07:41:47.859Z,2.50
2022-08-23T07:44:17.997Z,2.80
2022-08-23T07:46:46.272Z,3.30
2022-08-23T07:49:13.851Z,2.80
2022-08-23T07:51:42.460Z,2.10
2022-08-23T07:54:11.430Z,2.70
2022-08-23T07:56:38.100Z,2.87
2022-08-23T07:59:06.145Z,2.50
2022-08-23T08:01:32.883Z,2.50
2022-08-23T08:04:02.147Z,2.40
2022-08-23T08:06:35.178Z,2.57
2022-08-23T08:09:03.874Z,2.47
2022-08-23T08:11:35.184Z,2.80
2022-08-23T08:14:07.572Z,2.43
2022-08-23T08:16:40.983Z,2.67
2022-08-23T08:19:11.276Z,2.40
2022-08-23T08:21:41.936Z,2.47
2022-08-23T08:24:11.336Z,2.80
2022-08-23T08:26:38.084Z,2.30
2022-08-23T08:29:06.252Z,2.50
2022-08-23T08:31:32.962Z,2.40
2022-08-23T08:33:59.616Z,2.60
2022-08-23T08:36:44.491Z,2.50
2022-08-23T08:39:14.832Z,2.40
2022-08-23T08:42:04.984Z,2.07
2022-08-23T08:44:37.562Z,2.10
2022-08-23T08:47:14.008Z,2.17
2022-08-23T08:49:48.284Z,2.23
2022-08-23T08:52:25.978Z,2.50
2022-08-23T08:55:12.560Z,2.23
2022-08-23T08:57:42.501Z,2.20
2022-08-23T09:00:17.588Z,2.80
2022-08-23T09:02:45.281Z,2.30
2022-08-23T09:05:18.057Z,2.50
2022-08-23T09:07:53.164Z,2.67
2022-08-23T09:10:44.256Z,2.20
2022-08-23T09:13:23.324Z,2.53
2022-08-23T09:16:08.660Z,2.03
2022-08-23T09:18:36.148Z,2.27
2022-08-23T09:21:06.999Z,2.40
2022-08-23T09:23:36.570Z,2.07
2022-08-23T09:26:15.669Z,2.33
2022-08-23T09:28:46.045Z,2.50
2022-08-23T09:31:35.855Z,2.40
2022-08-23T09:34:02.906Z,2.10
2022-08-23T09:36:34.250Z,2.50
2022-08-23T09:39:05.601Z,2.43
2022-08-23T09:41:36.733Z,1.93
2022-08-23T09:44:06.696Z,2.20
2022-08-23T09:46:42.090Z,2.20
2022-08-23T09:49:30.153Z,2.33
2022-08-23T09:52:00.684Z,2.33
2022-08-23T09:54:33.095Z,2.40
2022-08-23T09:57:06.074Z,2.00
2022-08-23T09:59:43.900Z,2.37
2022-08-23T10:02:28.333Z,2.00
2022-08-23T10:05:07.907Z,2.40
2022-08-23T10:07:43.132Z,1.90
2022-08-23T10:10:49.092Z,2.43
2022-08-23T10:13:18.226Z,1.83
2022-08-23T10:15:59.213Z,1.90
2022-08-23T10:18:39.695Z,1.63
2022-08-23T10:21:18.972Z,2.17
2022-08-23T10:23:57.249Z,1.80
2022-08-23T10:26:33.002Z,1.90
2022-08-23T10:29:36.889Z,1.77
2022-08-23T10:32:10.487Z,1.60
2022-08-23T10:34:49.898Z,1.60
2022-08-23T10:37:36.178Z,1.73
2022-08-23T10:40:04.169Z,1.80
2022-08-23T10:42:37.386Z,2.00
2022-08-23T10:45:11.364Z,1.90
2022-08-23T10:47:46.088Z,1.63
2022-08-23T10:50:20.049Z,1.90
2022-08-23T10:53:19.996Z,1.63
2022-08-23T10:56:03.241Z,1.50
2022-08-23T10:58:41.240Z,1.83
2022-08-23T11:01:09.574Z,1.50
2022-08-23T11:03:44.128Z,1.70
2022-08-23T11:06:26.711Z,1.30
2022-08-23T11:09:06.195Z,1.40
2022-08-23T11:11:43.315Z,1.80
2022-08-23T11:14:25.397Z,1.40
2022-08-23T11:16:58.497Z,1.50
2022-08-23T11:19:49.080Z,1.40
2022-08-23T11:22:17.716Z,1.63
2022-08-23T11:24:57.706Z,1.47
2022-08-23T11:27:34.783Z,1.60
2022-08-23T11:30:32.519Z,1.67
2022-08-23T11:33:08.580Z,1.40
2022-08-23T11:35:53.035Z,1.50
2022-08-23T11:38:48.215Z,1.37
2022-08-23T11:41:14.799Z,1.63
2022-08-23T11:43:44.035Z,1.30
2022-08-23T11:46:16.734Z,1.50
2022-08-23T11:48:55.697Z,1.60
2022-08-23T11:51:37.489Z,1.30
2022-08-23T11:54:46.272Z,1.30
2022-08-23T11:57:47.922Z,1.53
2022-08-23T12:00:29.228Z,1.37
2022-08-23T12:03:04.487Z,1.07
2022-08-23T12:05:34.116Z,1.20
2022-08-23T12:08:04.084Z,1.60
2022-08-23T12:10:43.396Z,1.30
2022-08-23T12:13:22.431Z,1.10
2022-08-23T12:16:16.675Z,1.27
2022-08-23T12:18:53.396Z,1.10
2022-08-23T12:21:31.202Z,1.07
2022-08-23T12:24:22.370Z,1.43
2022-08-23T12:26:59.166Z,1.37
2022-08-23T12:29:43.903Z,1.20
2022-08-23T12:32:39.506Z,1.30
2022-08-23T12:35:19.052Z,1.03
2022-08-23T12:38:03.150Z,1.30
2022-08-23T12:40:34.287Z,1.37
2022-08-23T12:43:11.799Z,1.20
2022-08-23T12:45:54.247Z,1.43
2022-08-23T12:48:25.197Z,1.13
2022-08-23T12:51:06.566Z,1.37
2022-08-23T12:53:44.781Z,1.57
2022-08-23T12:56:26.763Z,1.20
2022-08-23T12:59:04.855Z,1.30
2022-08-23T13:01:35.841Z,1.17
2022-08-23T13:04:12.829Z,1.40
2022-08-23T13:06:51.437Z,1.13
2022-08-23T13:09:36.921Z,1.00
2022-08-23T13:12:06.382Z,1.00
2022-08-23T13:14:40.418Z,1.20
2022-08-23T13:17:26.967Z,1.17
2022-08-23T13:20:02.614Z,1.20
2022-08-23T13:22:31.189Z,1.30
2022-08-23T13:25:24.613Z,1.30
2022-08-23T13:27:46.297Z,1.30
2022-08-23T13:30:12.743Z,1.40
2022-08-23T13:32:48.197Z,1.30
2022-08-23T13:35:31.722Z,1.20
2022-08-23T13:38:06.643Z,1.13
2022-08-23T13:40:41.368Z,1.17
2022-08-23T13:43:12.053Z,1.33
2022-08-23T13:45:50.443Z,1.10
2022-08-23T13:48:27.451Z,1.40
2022-08-23T13:50:54.831Z,1.20
2022-08-23T13:53:22.470Z,1.30
2022-08-23T13:55:55.127Z,1.00
2022-08-23T13:58:33.849Z,1.20
2022-08-23T14:01:02.496Z,1.10
2022-08-23T14:03:34.274Z,1.23
2022-08-23T14:06:00.840Z,0.90
2022-08-23T14:08:27.356Z,1.00
2022-08-23T14:10:54.395Z,0.97
2022-08-23T14:13:24.951Z,1.20
2022-08-23T14:15:56.712Z,1.30
2022-08-23T14:18:25.710Z,1.20
2022-08-23T14:20:52.408Z,1.37
2022-08-23T14:23:19.269Z,1.20
2022-08-23T14:25:47.293Z,0.97
2022-08-23T14:28:13.860Z,1.37
2022-08-23T14:30:40.592Z,1.53
2022-08-23T14:33:07.440Z,1.37
2022-08-23T14:35:34.116Z,1.20
2022-08-23T14:38:03.323Z,1.20
2022-08-23T14:40:30.654Z,1.30
2022-08-23T14:42:57.410Z,1.57
2022-08-23T14:45:24.115Z,1.20
2022-08-23T14:47:50.691Z,1.30
2022-08-23T14:50:17.297Z,1.40
2022-08-23T14:52:46.428Z,1.00
2022-08-23T14:55:14.770Z,1.30
2022-08-23T14:57:41.958Z,1.27
2022-08-23T15:00:13.917Z,1.57
2022-08-23T15:02:44.612Z,1.10
2022-08-23T15:05:13.238Z,0.97
2022-08-23T15:07:40.073Z,1.30
2022-08-23T15:10:09.854Z,1.37
2022-08-23T15:15:23.860Z,1.40
2022-08-23T15:18:03.755Z,1.50
2022-08-23T15:20:34.229Z,1.30
2022-08-23T15:23:01.159Z,1.43
2022-08-23T15:25:33.787Z,1.30
2022-08-23T15:28:02.087Z,1.50
2022-08-23T15:30:30.354Z,1.60
2022-08-23T15:33:00.608Z,1.43
2022-08-23T15:35:28.711Z,1.47
2022-08-23T15:37:56.635Z,1.37
2022-08-23T15:40:25.301Z,1.57
2022-08-23T15:42:52.056Z,1.30
2022-08-23T15:45:18.620Z,1.40
2022-08-23T15:47:55.662Z,1.40
2022-08-23T15:50:24.941Z,1.40
2022-08-23T15:52:52.194Z,1.47
2022-08-23T15:55:19.780Z,1.50
2022-08-23T15:57:50.425Z,1.30
2022-08-23T16:00:18.856Z,1.43
2022-08-23T16:03:12.623Z,1.40
2022-08-23T16:05:32.261Z,1.20
2022-08-23T16:07:59.871Z,1.60
2022-08-23T16:10:28.319Z,1.77
2022-08-23T16:12:55.328Z,1.63
2022-08-23T16:15:22.219Z,1.40
2022-08-23T16:17:48.807Z,1.70
2022-08-23T16:20:15.652Z,1.50
2022-08-23T16:22:42.320Z,1.30
2022-08-23T16:25:09.144Z,1.70
2022-08-23T16:27:36.497Z,1.30
2022-08-23T16:30:05.714Z,1.50
2022-08-23T16:32:32.295Z,1.57
2022-08-23T16:34:58.852Z,1.30
2022-08-23T16:37:25.761Z,1.50
2022-08-23T16:39:52.406Z,1.50
2022-08-23T16:42:19.168Z,1.57
2022-08-23T16:44:45.724Z,1.40
2022-08-23T16:47:13.119Z,1.30
2022-08-23T16:49:40.288Z,1.37
2022-08-23T16:52:07.042Z,1.40
2022-08-23T16:54:33.567Z,1.40
2022-08-23T16:57:00.409Z,1.50
2022-08-23T16:59:26.955Z,1.47
2022-08-23T17:01:57.160Z,1.70
2022-08-23T17:04:30.618Z,1.67
2022-08-23T17:06:58.684Z,1.90
2022-08-23T17:09:27.700Z,1.60
2022-08-23T17:11:55.155Z,1.30
2022-08-23T17:14:24.122Z,1.50
2022-08-23T17:16:50.955Z,1.53
2022-08-23T17:19:17.555Z,1.40
2022-08-23T17:21:44.909Z,1.73
2022-08-23T17:24:11.420Z,1.80
2022-08-23T17:26:38.051Z,1.33
2022-08-23T17:29:04.966Z,1.77
2022-08-23T17:31:31.729Z,1.40
2022-08-23T17:34:03.214Z,1.57
2022-08-23T17:36:41.112Z,1.47
2022-08-23T17:39:10.718Z,1.67
2022-08-23T17:41:40.046Z,1.33
2022-08-23T17:44:09.063Z,1.70
2022-08-23T17:46:40.850Z,1.30
2022-08-23T17:49:07.923Z,1.40
2022-08-23T17:51:36.776Z,1.40
2022-08-23T17:54:04.347Z,1.50
2022-08-23T17:56:31.015Z,1.60
2022-08-23T17:58:57.585Z,1.63
2022-08-23T18:01:24.383Z,1.40
2022-08-23T18:03:51.440Z,1.70
2022-08-23T18:06:18.574Z,1.50
2022-08-23T18:08:46.256Z,1.50
2022-08-23T18:11:14.195Z,1.33
2022-08-23T18:13:42.508Z,1.70
2022-08-23T18:16:09.197Z,1.40
2022-08-23T18:18:36.092Z,1.50
2022-08-23T18:21:07.742Z,1.83
2022-08-23T18:23:35.083Z,1.67
2022-08-23T18:26:29.754Z,1.60
2022-08-23T18:28:57.351Z,1.73
2022-08-23T18:31:24.722Z,1.67
2022-08-23T18:33:51.340Z,1.80
2022-08-23T18:36:17.955Z,1.87
2022-08-23T18:38:46.147Z,1.80
2022-08-23T18:41:16.763Z,1.87
2022-08-23T18:43:44.316Z,2.07
2022-08-23T18:46:16.668Z,1.70
2022-08-23T18:48:43.346Z,2.07
2022-08-23T18:51:19.932Z,1.73
2022-08-23T18:53:47.001Z,1.90
2022-08-23T18:56:13.586Z,2.00
2022-08-23T18:58:40.110Z,1.70
2022-08-23T19:01:27.911Z,2.10
2022-08-23T19:03:56.537Z,1.80
2022-08-23T19:06:23.926Z,2.30
2022-08-23T19:08:51.737Z,1.90
2022-08-23T19:11:20.055Z,1.90
2022-08-23T19:13:47.962Z,2.00
2022-08-23T19:16:16.126Z,1.63
2022-08-23T19:18:46.167Z,2.03
2022-08-23T19:21:18.868Z,1.80
2022-08-23T19:23:46.823Z,1.80
2022-08-23T19:26:16.405Z,2.07
2022-08-23T19:28:43.743Z,1.90
2022-08-23T19:31:12.157Z,1.77
2022-08-23T19:33:41.839Z,2.07
2022-08-23T19:36:23.642Z,1.50
2022-08-23T19:38:57.399Z,1.70
2022-08-23T19:41:24.837Z,2.00
2022-08-23T19:43:52.495Z,1.77
2022-08-23T19:46:20.368Z,2.00
2022-08-23T19:48:50.373Z,1.80
2022-08-23T19:51:21.131Z,1.87
2022-08-23T19:54:11.049Z,1.80
2022-08-23T19:56:59.823Z,1.80
2022-08-23T19:59:31.712Z,1.90
2022-08-23T20:02:00.015Z,1.80
2022-08-23T20:04:29.994Z,2.10
2022-08-23T20:06:58.017Z,2.00
2022-08-23T20:09:26.387Z,2.00
2022-08-23T20:11:52.943Z,2.07
2022-08-23T20:14:21.894Z,2.00
2022-08-23T20:16:48.964Z,1.73
2022-08-23T20:19:16.101Z,2.00
2022-08-23T20:21:43.195Z,1.83
2022-08-23T20:24:12.640Z,1.80
2022-08-23T20:26:42.366Z,1.70
2022-08-23T20:29:14.371Z,1.90
2022-08-23T20:31:49.522Z,2.00
2022-08-23T20:34:16.516Z,1.90
2022-08-23T20:36:43.660Z,1.93
2022-08-23T20:39:10.415Z,1.80
2022-08-23T20:41:38.840Z,2.07
2022-08-23T20:44:06.936Z,1.93
2022-08-23T20:46:33.719Z,2.00
2022-08-23T20:49:00.761Z,2.00
2022-08-23T20:51:28.597Z,2.00
2022-08-23T20:53:56.212Z,1.90
2022-08-23T20:56:23.559Z,2.10
2022-08-23T20:58:50.887Z,1.90
2022-08-23T21:01:18.587Z,2.17
2022-08-23T21:03:45.592Z,1.83
2022-08-23T21:06:20.131Z,2.03
2022-08-23T21:08:53.413Z,2.40
2022-08-23T21:11:22.084Z,1.93
2022-08-23T21:13:49.518Z,2.00
2022-08-23T21:16:17.310Z,2.20
2022-08-23T21:18:44.324Z,1.83
2022-08-23T21:21:11.367Z,2.20
2022-08-23T21:23:38.765Z,2.30
2022-08-23T21:26:06.493Z,2.17
2022-08-23T21:28:33.306Z,2.30
2022-08-23T21:31:15.841Z,1.90
2022-08-23T21:33:43.130Z,1.90
2022-08-23T21:36:10.291Z,2.10
2022-08-23T21:38:37.370Z,2.20
2022-08-23T21:41:07.827Z,2.20
2022-08-23T21:43:39.171Z,2.20
2022-08-23T21:46:07.300Z,2.30
2022-08-23T21:48:34.402Z,2.40
2022-08-23T21:51:01.267Z,2.13
2022-08-23T21:53:27.954Z,2.13
2022-08-23T21:55:54.494Z,2.07
2022-08-23T21:58:21.029Z,2.07
2022-08-23T22:00:48.010Z,2.10
2022-08-23T22:03:14.723Z,2.47
2022-08-23T22:05:43.732Z,2.27
2022-08-23T22:08:14.428Z,2.20
2022-08-23T22:10:48.146Z,2.10
2022-08-23T22:13:24.883Z,1.70
2022-08-23T22:15:51.503Z,2.30
2022-08-23T22:18:18.161Z,2.20
2022-08-23T22:20:44.688Z,2.10
2022-08-23T22:23:11.438Z,2.07
2022-08-23T22:25:38.085Z,2.30
2022-08-23T22:28:04.673Z,2.17
2022-08-23T22:30:31.228Z,2.37
2022-08-23T22:32:57.790Z,2.07
2022-08-23T22:35:24.375Z,2.00
2022-08-23T22:38:12.343Z,1.90
2022-08-23T22:40:37.499Z,1.87
2022-08-23T22:43:04.068Z,2.10
2022-08-23T22:45:30.620Z,1.93
2022-08-23T22:47:57.248Z,1.97
2022-08-23T22:50:23.840Z,1.80
2022-08-23T22:52:50.901Z,1.63
2022-08-23T22:55:17.737Z,2.20
2022-08-23T22:57:44.311Z,1.97
2022-08-23T23:00:11.530Z,1.83
2022-08-23T23:02:38.948Z,1.97
2022-08-23T23:05:07.944Z,1.80
2022-08-23T23:07:52.886Z,1.83
2022-08-23T23:10:19.544Z,2.20
2022-08-23T23:12:46.464Z,1.90
2022-08-23T23:15:13.166Z,1.80
2022-08-23T23:17:39.908Z,2.10
2022-08-23T23:20:25.560Z,2.03
2022-08-23T23:22:52.162Z,1.90
2022-08-23T23:25:18.974Z,2.00
2022-08-23T23:27:45.587Z,1.97
2022-08-23T23:30:12.948Z,1.83
2022-08-23T23:32:39.675Z,2.03
2022-08-23T23:35:09.446Z,2.00
2022-08-23T23:37:36.118Z,1.50
2022-08-23T23:40:03.686Z,1.83
2022-08-23T23:42:30.245Z,2.10
2022-08-23T23:44:56.768Z,2.00
2022-08-23T23:47:23.406Z,1.80
2022-08-23T23:49:50.596Z,1.87
2022-08-23T23:52:17.285Z,2.00
2022-08-23T23:54:43.902Z,1.83
2022-08-23T23:57:10.431Z,1.73
2022-08-23T23:59:37.060Z,2.03
